Guthrie, Minnesota
Current Conditions -  °F | °C
As of 12:55 PM on Friday 21 Nov 2014 (Local Time) from KY49 Reporting Station
Clear Clear  
Wind Chill: 17°   Ceiling: Unl
Heat Index: 28°   Visibility: 10mi
Dew Point: 17°   Wind: 12mph
Humidity: 65%   Direction: 190°S
Pressure: 29.82"   Gusts: 18mph
Location:  47.2392°N, 94.7928°W
Report Text: KY49 211855Z AUTO 19010G16KT 10SM CLR M02/M08 A2982 RMK AO2 T10251082
Loading
Personal Weather Stations






























Interactive Weather Map New forecast layout! Learn more

10-Day Weather Forecast

Advertisements
Track Severe Weather on mobile